Time;durP1;ratioP1;P1;durP2;ratioP2;P2;SDS_P1;SDS_P2;PMS_P1;PMS_P2;Temp;Humidity;BMP_temperature;BMP_pressure;BME280_temperature;BME280_humidity;BME280_pressure;Samples;Min_cycle;Max_cycle;Signal;HPM_P1;HPM_P2
2022/04/22 00:01:11;;;;;;;1.30;0.43;;;17.70;47.40;;;;;;5073303;28;20049;-68
2022/04/22 00:03:37;;;;;;;1.73;0.75;;;17.60;47.50;;;;;;5074741;28;20087;-69
2022/04/22 00:06:03;;;;;;;1.15;0.57;;;17.60;47.40;;;;;;5073172;28;20045;-69
2022/04/22 00:08:30;;;;;;;1.77;1.25;;;17.60;47.40;;;;;;5090086;28;20040;-67
2022/04/22 00:13:42;;;;;;;2.65;0.77;;;17.60;47.50;;;;;;5074218;28;20044;-66
2022/04/22 00:16:09;;;;;;;1.38;0.40;;;17.60;47.50;;;;;;5089521;28;20037;-67
2022/04/22 00:18:35;;;;;;;1.42;0.80;;;17.60;47.60;;;;;;5089913;28;20040;-68
2022/04/22 00:21:01;;;;;;;1.58;0.50;;;17.50;47.50;;;;;;5074356;28;20047;-67
2022/04/22 00:23:27;;;;;;;1.30;0.60;;;17.50;47.60;;;;;;5074122;28;20407;-67
2022/04/22 00:25:54;;;;;;;2.22;1.00;;;17.50;47.60;;;;;;5089938;28;20043;-69
2022/04/22 00:28:20;;;;;;;1.55;0.93;;;17.50;47.60;;;;;;5074033;28;20477;-68
2022/04/22 00:30:47;;;;;;;3.08;0.90;;;17.50;47.60;;;;;;5089723;28;20143;-67
2022/04/22 00:33:13;;;;;;;2.05;0.82;;;17.50;47.70;;;;;;5072707;28;20040;-68
2022/04/22 00:35:39;;;;;;;1.45;1.02;;;17.50;47.70;;;;;;5089815;28;20109;-69
2022/04/22 00:38:05;;;;;;;2.67;1.13;;;17.50;47.70;;;;;;5089492;28;20068;-67
2022/04/22 00:40:31;;;;;;;1.63;0.90;;;17.40;47.70;;;;;;5089570;28;20068;-69
2022/04/22 00:42:56;;;;;;;3.30;1.10;;;17.40;47.70;;;;;;5073476;28;20041;-69
2022/04/22 00:45:22;;;;;;;2.63;1.00;;;17.40;47.70;;;;;;5073913;28;20472;-69
2022/04/22 00:47:50;;;;;;;2.00;1.20;;;17.40;47.80;;;;;;5089246;28;20123;-68
2022/04/22 00:50:17;;;;;;;1.90;1.17;;;17.40;47.80;;;;;;5089620;28;20036;-67
2022/04/22 00:52:46;;;;;;;2.50;1.15;;;17.40;47.80;;;;;;5072311;28;20043;-67
2022/04/22 00:55:14;;;;;;;1.63;1.27;;;17.40;47.90;;;;;;5089170;28;20032;-67
2022/04/22 00:57:41;;;;;;;1.73;1.08;;;17.40;47.90;;;;;;5073747;28;20087;-69
2022/04/22 01:00:07;;;;;;;2.40;1.00;;;17.30;47.90;;;;;;5073580;28;20044;-67
2022/04/22 01:02:32;;;;;;;2.03;1.60;;;17.30;47.90;;;;;;5089402;28;20082;-67
2022/04/22 01:10:29;;;;;;;2.38;1.13;;;17.30;48.00;;;;;;5073251;28;20572;-69
2022/04/22 01:12:55;;;;;;;3.83;1.42;;;17.30;48.10;;;;;;5089219;28;20119;-69
2022/04/22 01:15:22;;;;;;;2.45;0.95;;;17.30;48.10;;;;;;5071931;28;20506;-67
2022/04/22 01:17:48;;;;;;;3.15;1.10;;;17.20;48.00;;;;;;5073123;28;20420;-67
2022/04/22 01:20:16;;;;;;;1.80;0.77;;;17.20;48.10;;;;;;5088622;28;20503;-68
2022/04/22 01:22:41;;;;;;;2.55;1.13;;;17.20;48.10;;;;;;5088631;28;20044;-65
2022/04/22 01:25:07;;;;;;;3.55;1.55;;;17.30;48.20;;;;;;5088563;28;20165;-68
2022/04/22 01:27:33;;;;;;;4.35;1.42;;;17.20;48.20;;;;;;5088085;28;20240;-68
2022/04/22 01:30:02;;;;;;;1.95;1.05;;;17.20;48.20;;;;;;5071554;28;20047;-69
2022/04/22 01:32:29;;;;;;;1.40;1.02;;;17.20;48.20;;;;;;5088771;28;20170;-68
2022/04/22 01:34:54;;;;;;;2.60;1.42;;;17.20;48.20;;;;;;5088468;28;20123;-69
2022/04/22 01:37:20;;;;;;;2.25;1.52;;;17.20;48.20;;;;;;5072802;28;20119;-67
2022/04/22 01:39:46;;;;;;;3.45;1.90;;;17.20;48.30;;;;;;5071405;28;20040;-67
2022/04/22 01:42:11;;;;;;;2.72;1.70;;;17.10;48.20;;;;;;5088554;28;20040;-66
2022/04/22 01:44:37;;;;;;;1.45;1.05;;;17.20;48.30;;;;;;5088000;28;20500;-69
2022/04/22 01:47:04;;;;;;;2.15;1.30;;;17.10;48.30;;;;;;5072603;28;20041;-67
2022/04/22 01:49:30;;;;;;;2.80;1.48;;;17.10;48.30;;;;;;5072473;28;20075;-69
2022/04/22 01:51:56;;;;;;;2.85;1.20;;;17.10;48.30;;;;;;5088070;28;20476;-67
2022/04/22 01:54:22;;;;;;;6.72;1.40;;;17.10;48.40;;;;;;5088079;28;20546;-67
2022/04/22 01:56:47;;;;;;;1.88;1.08;;;17.10;48.40;;;;;;5072370;28;20075;-67
2022/04/22 01:59:13;;;;;;;2.25;1.38;;;17.10;48.40;;;;;;5071431;28;20396;-67
2022/04/22 02:01:39;;;;;;;3.08;1.85;;;17.10;48.40;;;;;;5087939;28;20071;-67
2022/04/22 02:04:04;;;;;;;2.70;1.48;;;17.10;48.40;;;;;;5087845;28;20048;-67
2022/04/22 02:06:30;;;;;;;2.70;2.10;;;17.00;48.40;;;;;;5087803;28;20046;-67
2022/04/22 02:08:58;;;;;;;2.45;1.40;;;17.10;48.50;;;;;;5072204;28;20124;-68
2022/04/22 02:11:27;;;;;;;1.70;1.02;;;17.00;48.50;;;;;;5087773;28;20488;-68
2022/04/22 02:13:52;;;;;;;3.08;1.65;;;17.00;48.50;;;;;;5087828;28;20051;-68
2022/04/22 02:16:18;;;;;;;2.38;1.55;;;17.00;48.50;;;;;;5087909;28;20130;-67
2022/04/22 02:18:44;;;;;;;3.53;1.20;;;17.00;48.50;;;;;;5087651;28;20480;-68
2022/04/22 02:21:10;;;;;;;2.45;1.40;;;17.00;48.50;;;;;;5072439;28;20040;-70
2022/04/22 02:23:37;;;;;;;2.65;1.70;;;17.00;48.50;;;;;;5071883;28;20045;-69
2022/04/22 02:26:04;;;;;;;3.42;1.67;;;17.00;48.60;;;;;;5072173;28;20071;-66
2022/04/22 02:28:33;;;;;;;4.20;1.73;;;17.00;48.60;;;;;;5087873;28;20041;-67
2022/04/22 02:31:08;;;;;;;3.67;1.83;;;16.90;48.50;;;;;;5071921;28;20067;-66
2022/04/22 02:33:37;;;;;;;2.97;1.75;;;16.90;48.60;;;;;;5087537;28;20044;-68
2022/04/22 02:36:04;;;;;;;2.83;1.60;;;16.90;48.60;;;;;;5087331;28;20048;-67
2022/04/22 02:38:30;;;;;;;2.33;1.30;;;16.90;48.60;;;;;;5087599;28;20055;-67
2022/04/22 02:46:28;;;;;;;2.25;0.77;;;17.20;48.30;;;;;;5070562;28;20041;-67
2022/04/22 02:48:58;;;;;;;2.97;1.23;;;17.40;47.90;;;;;;5087779;28;20051;-67
2022/04/22 02:51:24;;;;;;;3.25;1.00;;;17.70;47.50;;;;;;5087712;28;20044;-69
2022/04/22 02:53:52;;;;;;;1.95;1.08;;;18.00;47.00;;;;;;5070959;28;20067;-67
2022/04/22 02:56:19;;;;;;;2.15;1.10;;;18.30;46.40;;;;;;5087255;28;20507;-68
2022/04/22 02:58:48;;;;;;;2.55;0.90;;;18.60;45.90;;;;;;5070393;28;20125;-67
2022/04/22 03:01:15;;;;;;;1.70;1.02;;;18.90;45.40;;;;;;5087254;28;20044;-69
2022/04/22 03:03:45;;;;;;;1.90;0.80;;;19.20;45.00;;;;;;5070267;28;20059;-67
2022/04/22 03:06:10;;;;;;;3.15;1.08;;;19.40;44.40;;;;;;5087218;28;20514;-66
2022/04/22 03:08:36;;;;;;;1.95;0.68;;;19.70;44.00;;;;;;5087477;28;20071;-69
2022/04/22 03:11:03;;;;;;;3.03;0.70;;;19.80;43.60;;;;;;5070514;28;20381;-66
2022/04/22 03:13:33;;;;;;;2.00;1.00;;;20.10;43.30;;;;;;5087380;28;20043;-65
2022/04/22 03:15:59;;;;;;;1.08;0.63;;;20.20;42.90;;;;;;5071536;28;20098;-68
2022/04/22 03:18:25;;;;;;;1.40;0.50;;;20.40;42.60;;;;;;5087014;28;20205;-67
2022/04/22 03:20:51;;;;;;;2.78;1.00;;;20.50;42.40;;;;;;5087118;28;20494;-67
2022/04/22 03:23:17;;;;;;;1.92;1.13;;;20.60;42.10;;;;;;5086858;28;20045;-69
2022/04/22 03:25:42;;;;;;;2.03;0.85;;;20.70;41.90;;;;;;5069545;28;20166;-67
2022/04/22 03:28:08;;;;;;;2.05;1.10;;;20.70;41.70;;;;;;5086909;28;20116;-67
2022/04/22 03:30:37;;;;;;;2.15;0.73;;;20.80;41.60;;;;;;5086940;28;20036;-68
2022/04/22 03:33:03;;;;;;;1.70;0.98;;;20.80;41.40;;;;;;5087289;28;20044;-68
2022/04/22 03:35:29;;;;;;;1.77;0.77;;;20.80;41.40;;;;;;5071327;28;20037;-69
2022/04/22 03:37:56;;;;;;;2.63;1.15;;;20.80;41.30;;;;;;5086856;28;20404;-69
2022/04/22 03:40:22;;;;;;;2.53;1.13;;;20.80;41.30;;;;;;5071314;28;20517;-66
2022/04/22 03:42:48;;;;;;;1.98;0.70;;;20.70;41.20;;;;;;5070036;28;20388;-66
2022/04/22 03:45:13;;;;;;;1.60;0.75;;;20.70;41.20;;;;;;5086648;28;20037;-68
2022/04/22 03:47:39;;;;;;;2.60;0.82;;;20.60;41.20;;;;;;5071228;28;20048;-67
2022/04/22 03:50:05;;;;;;;1.20;0.57;;;20.50;41.20;;;;;;5071373;28;20427;-66
2022/04/22 03:52:31;;;;;;;2.15;0.80;;;20.50;41.30;;;;;;5073153;28;20045;-67
2022/04/22 03:54:57;;;;;;;2.30;0.80;;;20.40;41.30;;;;;;5074691;28;20120;-67
2022/04/22 04:00:08;;;;;;;2.83;0.85;;;20.30;41.50;;;;;;5072812;28;20409;-66
2022/04/22 04:02:35;;;;;;;2.17;1.02;;;20.30;41.60;;;;;;5090225;28;20043;-67
2022/04/22 04:05:01;;;;;;;2.03;0.77;;;20.20;41.50;;;;;;5074536;28;20542;-67
2022/04/22 04:07:27;;;;;;;2.47;1.20;;;20.20;41.60;;;;;;5090467;28;20048;-67
2022/04/22 04:18:09;;;;;;;1.92;1.02;;;20.20;41.60;;;;;;5073178;28;20363;-67
2022/04/22 04:23:20;;;;;;;2.40;1.00;;;20.20;41.40;;;;;;5073987;28;20131;-67
2022/04/22 04:25:47;;;;;;;2.38;1.10;;;20.20;41.30;;;;;;5090060;28;20071;-66
2022/04/22 04:28:15;;;;;;;2.17;0.90;;;20.30;41.30;;;;;;5089785;28;20115;-67
2022/04/22 04:30:42;;;;;;;1.33;0.60;;;20.40;41.20;;;;;;5089713;28;20071;-69
2022/04/22 04:33:08;;;;;;;2.00;0.57;;;20.40;41.10;;;;;;5073071;28;20041;-67
2022/04/22 04:35:35;;;;;;;1.48;0.80;;;20.40;41.00;;;;;;5074045;28;20388;-67
2022/04/22 04:38:02;;;;;;;1.35;0.68;;;20.40;40.90;;;;;;5089827;28;20032;-67
2022/04/22 04:40:28;;;;;;;2.33;0.57;;;20.50;40.90;;;;;;5072627;28;20048;-67
2022/04/22 04:42:54;;;;;;;1.98;0.80;;;20.40;40.80;;;;;;5089688;28;20057;-67
2022/04/22 04:45:20;;;;;;;1.98;0.68;;;20.50;40.90;;;;;;5073727;28;20391;-67
2022/04/22 04:47:46;;;;;;;2.10;0.68;;;20.40;40.70;;;;;;5073814;28;20507;-69
2022/04/22 04:50:12;;;;;;;1.35;0.52;;;20.40;40.80;;;;;;5089668;28;20032;-67
2022/04/22 04:52:39;;;;;;;0.93;0.47;;;20.40;40.80;;;;;;5089258;28;20044;-69
2022/04/22 04:55:07;;;;;;;1.30;0.60;;;20.40;40.80;;;;;;5089306;28;20075;-69
2022/04/22 04:57:33;;;;;;;1.88;0.45;;;20.40;40.80;;;;;;5089141;28;20480;-69
2022/04/22 04:59:59;;;;;;;1.67;0.50;;;20.30;40.80;;;;;;5089254;28;20056;-67
2022/04/22 05:02:25;;;;;;;0.90;0.50;;;20.30;40.90;;;;;;5089323;28;20041;-67
2022/04/22 05:04:51;;;;;;;2.25;0.80;;;20.20;40.90;;;;;;5072134;28;20471;-67
2022/04/22 05:07:17;;;;;;;4.80;1.08;;;20.20;40.90;;;;;;5089173;28;20369;-69
2022/04/22 05:09:43;;;;;;;4.10;1.00;;;20.20;41.00;;;;;;5089293;28;20041;-69
2022/04/22 05:12:10;;;;;;;2.20;0.52;;;20.10;41.00;;;;;;5072079;28;20123;-67
2022/04/22 05:14:38;;;;;;;2.10;0.70;;;20.10;41.10;;;;;;5073516;28;20036;-67
2022/04/22 05:17:04;;;;;;;2.47;0.70;;;20.10;41.10;;;;;;5088907;28;20102;-65
2022/04/22 05:19:30;;;;;;;2.53;0.60;;;20.10;41.10;;;;;;5071927;28;20098;-68
2022/04/22 05:21:56;;;;;;;2.17;0.60;;;20.10;41.10;;;;;;5072005;28;20499;-67
2022/04/22 05:24:22;;;;;;;1.85;0.65;;;20.00;41.00;;;;;;5088204;28;20127;-67
2022/04/22 05:26:48;;;;;;;2.17;0.90;;;20.00;41.00;;;;;;5071302;28;20036;-67
2022/04/22 05:34:45;;;;;;;1.73;0.68;;;20.10;41.00;;;;;;5071580;28;20127;-67
2022/04/22 05:37:11;;;;;;;2.15;0.65;;;20.10;40.90;;;;;;5070747;28;20136;-66
2022/04/22 05:39:36;;;;;;;1.52;0.65;;;20.10;40.90;;;;;;5071304;28;20039;-67
2022/04/22 05:42:02;;;;;;;1.10;0.40;;;20.10;40.80;;;;;;5071573;28;20084;-66
2022/04/22 05:44:28;;;;;;;1.30;0.55;;;20.20;40.80;;;;;;5070861;28;20136;-67
2022/04/22 05:46:54;;;;;;;3.15;0.70;;;20.20;40.80;;;;;;5102626;28;20040;-67
2022/04/22 05:49:20;;;;;;;1.42;0.60;;;20.20;40.70;;;;;;5089641;28;20089;-68
2022/04/22 05:51:45;;;;;;;1.52;0.43;;;20.20;41.00;;;;;;5068899;28;20115;-67
2022/04/22 05:54:11;;;;;;;1.55;0.52;;;20.20;40.60;;;;;;5085324;28;20071;-68
2022/04/22 05:56:37;;;;;;;2.42;0.50;;;20.20;40.70;;;;;;5084811;28;20039;-67
2022/04/22 05:59:03;;;;;;;1.45;0.30;;;20.20;40.70;;;;;;5069437;28;20044;-68
2022/04/22 06:01:29;;;;;;;4.13;0.55;;;20.20;40.80;;;;;;5069940;28;20060;-64
2022/04/22 06:03:55;;;;;;;2.45;0.85;;;20.20;40.80;;;;;;5067624;28;20124;-67
2022/04/22 06:06:21;;;;;;;1.80;0.70;;;20.20;40.70;;;;;;5066385;28;20123;-67
2022/04/22 06:11:33;;;;;;;3.42;0.52;;;20.20;40.70;;;;;;5064049;28;20614;-67
2022/04/22 06:13:58;;;;;;;1.98;0.63;;;20.20;40.70;;;;;;5064034;28;20048;-64
2022/04/22 06:16:24;;;;;;;2.03;0.68;;;20.20;40.60;;;;;;5080593;28;20040;-67
2022/04/22 06:18:50;;;;;;;2.22;0.52;;;20.20;40.40;;;;;;5076139;28;20667;-67
2022/04/22 06:21:15;;;;;;;4.68;0.60;;;20.20;40.30;;;;;;5066081;28;20085;-67
2022/04/22 06:23:41;;;;;;;2.10;0.80;;;20.20;40.30;;;;;;5064447;28;20497;-67
2022/04/22 06:26:07;;;;;;;3.45;1.10;;;20.30;40.20;;;;;;5067501;28;20044;-68
2022/04/22 06:28:34;;;;;;;3.25;0.93;;;20.40;40.10;;;;;;5065200;28;20081;-67
2022/04/22 06:31:00;;;;;;;1.73;0.73;;;20.40;40.00;;;;;;5067330;28;20045;-67
2022/04/22 06:33:26;;;;;;;1.45;0.60;;;20.50;39.90;;;;;;5070511;28;20058;-70
2022/04/22 06:35:51;;;;;;;6.18;1.63;;;20.50;39.80;;;;;;5054378;28;20048;-68
2022/04/22 06:38:18;;;;;;;5.05;0.70;;;20.60;39.90;;;;;;5069154;28;20524;-67
2022/04/22 06:46:16;;;;;;;6.93;1.33;;;20.70;39.80;;;;;;5055580;28;20123;-69
2022/04/22 06:48:43;;;;;;;6.20;0.82;;;20.70;39.80;;;;;;5073636;28;20127;-67
2022/04/22 06:51:10;;;;;;;5.82;1.10;;;20.80;39.80;;;;;;5074494;28;20120;-67
2022/04/22 06:53:36;;;;;;;5.22;1.20;;;20.80;39.60;;;;;;5061096;28;20036;-67
2022/04/22 06:56:05;;;;;;;4.93;1.00;;;20.80;39.50;;;;;;5063589;28;20037;-67
2022/04/22 06:58:32;;;;;;;9.48;1.48;;;20.80;39.30;;;;;;5064679;28;20643;-66
2022/04/22 07:00:59;;;;;;;5.53;1.42;;;20.80;39.30;;;;;;5072311;28;20087;-66
2022/04/22 07:03:24;;;;;;;4.35;1.27;;;20.80;39.10;;;;;;5056926;28;20124;-69
2022/04/22 07:05:51;;;;;;;3.17;1.00;;;20.80;39.10;;;;;;5056443;28;20132;-67
2022/04/22 07:08:18;;;;;;;4.57;1.00;;;20.80;39.20;;;;;;5051908;28;20033;-68
2022/04/22 07:10:46;;;;;;;4.20;1.13;;;20.80;39.10;;;;;;5052018;28;20085;-67
2022/04/22 07:13:12;;;;;;;7.20;0.82;;;20.70;39.00;;;;;;5051595;28;20090;-66
2022/04/22 07:15:39;;;;;;;5.38;0.82;;;20.70;39.10;;;;;;5065054;28;20076;-66
2022/04/22 07:18:06;;;;;;;2.35;0.68;;;20.80;39.20;;;;;;5049699;28;20036;-66
2022/04/22 07:20:32;;;;;;;4.72;0.90;;;20.70;39.10;;;;;;5054106;28;20120;-66
2022/04/22 07:22:59;;;;;;;2.20;0.80;;;20.70;39.20;;;;;;5051409;28;20075;-67
2022/04/22 07:25:26;;;;;;;4.80;0.50;;;20.80;39.10;;;;;;5053452;28;20052;-68
2022/04/22 07:27:52;;;;;;;5.75;0.90;;;20.70;39.10;;;;;;5057730;28;20055;-64
2022/04/22 07:30:19;;;;;;;3.97;1.20;;;20.70;39.20;;;;;;5051589;28;20032;-66
2022/04/22 07:32:46;;;;;;;2.20;0.60;;;20.80;39.20;;;;;;5060057;28;20067;-67
2022/04/22 07:35:17;;;;;;;2.92;0.57;;;20.80;39.10;;;;;;5060921;28;20483;-67
2022/04/22 07:37:45;;;;;;;3.83;0.70;;;20.70;39.00;;;;;;5053813;28;20044;-67
2022/04/22 07:40:12;;;;;;;1.90;0.80;;;20.70;39.00;;;;;;5063456;28;20065;-67
2022/04/22 07:42:42;;;;;;;3.85;0.70;;;20.70;39.00;;;;;;5070759;28;20045;-67
2022/04/22 07:47:54;;;;;;;4.55;1.05;;;20.70;38.90;;;;;;5051446;28;20143;-66
2022/04/22 07:50:20;;;;;;;3.65;0.60;;;20.70;39.00;;;;;;5056757;28;20437;-65
2022/04/22 07:52:46;;;;;;;4.18;0.70;;;20.70;39.00;;;;;;5057660;28;20412;-69
2022/04/22 07:55:13;;;;;;;1.75;0.50;;;20.70;38.90;;;;;;5075961;28;20049;-67
2022/04/22 07:57:40;;;;;;;2.67;0.70;;;20.60;38.80;;;;;;5052611;28;20076;-67
2022/04/22 08:00:08;;;;;;;1.00;0.70;;;20.70;38.90;;;;;;5054388;28;20051;-66
2022/04/22 08:02:34;;;;;;;2.80;0.50;;;20.60;39.00;;;;;;5054630;28;20052;-66
2022/04/22 08:05:00;;;;;;;2.55;0.73;;;20.60;39.00;;;;;;5071104;28;20042;-66
2022/04/22 08:07:26;;;;;;;4.25;1.35;;;20.60;39.00;;;;;;5057785;28;20040;-67
2022/04/22 08:09:52;;;;;;;3.63;0.90;;;20.60;39.10;;;;;;5050610;28;20391;-67
2022/04/22 08:12:19;;;;;;;3.97;0.55;;;20.50;39.00;;;;;;5053112;28;20515;-66
2022/04/22 08:14:45;;;;;;;3.10;0.93;;;20.50;39.10;;;;;;5054239;28;20407;-67
2022/04/22 08:17:11;;;;;;;3.60;0.75;;;20.50;39.30;;;;;;5072670;28;20067;-66
2022/04/22 08:19:37;;;;;;;6.07;0.88;;;20.50;39.70;;;;;;5070947;28;20048;-67
2022/04/22 08:22:03;;;;;;;3.08;0.70;;;20.40;39.60;;;;;;5053776;28;20116;-65
2022/04/22 08:24:29;;;;;;;1.65;0.65;;;20.40;39.80;;;;;;5057009;28;20036;-67
2022/04/22 08:26:56;;;;;;;4.85;0.65;;;20.40;39.80;;;;;;5053305;28;20041;-67
2022/04/22 08:29:21;;;;;;;5.15;0.70;;;20.40;39.80;;;;;;5071930;28;20032;-66
2022/04/22 08:31:47;;;;;;;3.75;0.70;;;20.40;40.00;;;;;;5056361;28;20037;-66
2022/04/22 08:34:12;;;;;;;4.00;0.57;;;20.30;40.00;;;;;;5054158;28;20041;-67
2022/04/22 08:36:43;;;;;;;6.75;1.17;;;20.30;40.10;;;;;;5055388;28;20067;-64
2022/04/22 08:39:08;;;;;;;4.50;0.98;;;20.30;40.30;;;;;;5057680;28;20045;-65
2022/04/22 08:41:35;;;;;;;3.30;0.88;;;20.30;40.20;;;;;;5053966;28;20044;-68
2022/04/22 08:44:01;;;;;;;3.08;0.50;;;20.20;40.30;;;;;;5053998;28;20049;-68
2022/04/22 08:52:01;;;;;;;4.68;0.63;;;20.20;40.40;;;;;;5045095;28;20048;-68
2022/04/22 08:54:28;;;;;;;3.33;0.30;;;20.20;40.40;;;;;;5064696;28;20480;-68
2022/04/22 08:56:54;;;;;;;2.50;0.55;;;20.20;40.50;;;;;;5056143;28;20075;-67
2022/04/22 08:59:25;;;;;;;4.45;0.65;;;20.20;40.40;;;;;;5049426;28;20400;-67
2022/04/22 09:01:51;;;;;;;3.40;0.80;;;20.30;40.30;;;;;;5066743;28;20079;-67
2022/04/22 09:04:19;;;;;;;2.22;0.40;;;20.40;40.20;;;;;;5050375;28;20151;-67
2022/04/22 09:06:47;;;;;;;2.30;0.38;;;20.40;40.10;;;;;;5053419;28;20313;-67
2022/04/22 09:09:13;;;;;;;3.25;0.35;;;20.40;40.00;;;;;;5064025;28;20460;-67
2022/04/22 09:11:43;;;;;;;1.58;0.30;;;20.50;40.00;;;;;;5047923;28;20048;-68
2022/04/22 09:14:08;;;;;;;3.17;0.40;;;20.60;39.70;;;;;;5070178;28;20149;-67
2022/04/22 09:16:34;;;;;;;2.17;0.38;;;20.70;39.60;;;;;;5053886;28;20032;-68
2022/04/22 09:19:01;;;;;;;1.60;0.40;;;20.80;39.30;;;;;;5063728;28;20038;-67
2022/04/22 09:21:29;;;;;;;1.00;0.40;;;20.90;38.80;;;;;;5051618;28;20037;-69
2022/04/22 09:23:56;;;;;;;2.00;0.35;;;21.00;38.40;;;;;;5054296;28;20040;-67
2022/04/22 09:29:04;;;;;;;2.28;0.40;;;21.00;38.30;;;;;;5095628;27;20144;-67
2022/04/22 09:31:43;;;;;;;4.93;0.60;;;21.20;38.10;;;;;;5071654;28;20072;-67
2022/04/22 09:34:09;;;;;;;2.83;0.47;;;21.30;38.00;;;;;;5069100;28;20162;-67
2022/04/22 09:42:47;;;;;;;1.95;0.30;;;21.50;37.30;;;;;;5072812;28;20048;-66
2022/04/22 09:45:04;;;;;;;2.42;0.30;;;21.60;37.20;;;;;;5075068;28;20098;-66
2022/04/22 09:47:32;;;;;;;5.10;0.40;;;21.70;37.10;;;;;;5073196;28;20063;-66
2022/04/22 09:49:59;;;;;;;3.10;0.32;;;21.70;37.00;;;;;;5074177;28;20047;-67
2022/04/22 09:52:27;;;;;;;5.60;0.30;;;21.70;36.90;;;;;;5073719;28;20032;-69
2022/04/22 09:54:56;;;;;;;3.20;0.45;;;21.70;36.90;;;;;;5072419;28;20076;-66
2022/04/22 09:57:22;;;;;;;6.03;0.40;;;21.70;37.60;;;;;;5078224;28;20044;-67
2022/04/22 09:59:47;;;;;;;2.40;0.22;;;21.70;36.90;;;;;;5075722;28;20085;-67
2022/04/22 10:02:23;;;;;;;3.45;0.40;;;21.70;36.90;;;;;;5079852;28;20087;-67
2022/04/22 10:04:50;;;;;;;3.72;0.20;;;21.70;36.90;;;;;;5076877;28;20571;-68
2022/04/22 10:07:17;;;;;;;6.43;0.40;;;21.70;37.00;;;;;;5072022;28;20036;-70
2022/04/22 10:09:45;;;;;;;2.25;0.55;;;21.70;37.00;;;;;;5074308;28;20077;-69
2022/04/22 10:12:15;;;;;;;2.63;0.50;;;21.70;37.10;;;;;;5075912;28;20147;-69
2022/04/22 10:14:46;;;;;;;3.60;0.30;;;21.70;37.10;;;;;;5068302;28;20044;-67
2022/04/22 10:17:12;;;;;;;1.58;0.30;;;21.70;37.10;;;;;;5074910;28;20642;-69
2022/04/22 10:19:41;;;;;;;3.92;0.52;;;21.70;37.10;;;;;;5075283;28;20075;-69
2022/04/22 10:22:10;;;;;;;5.88;0.70;;;21.70;37.10;;;;;;5076707;28;20040;-69
2022/04/22 10:24:37;;;;;;;0.95;0.20;;;21.70;37.10;;;;;;5078817;28;20201;-71
2022/04/22 10:27:07;;;;;;;1.90;0.25;;;21.70;37.10;;;;;;5088946;28;20101;-68
2022/04/22 10:29:34;;;;;;;1.63;0.98;;;21.70;37.20;;;;;;5072619;28;20036;-69
2022/04/22 10:32:03;;;;;;;3.58;0.32;;;21.60;37.10;;;;;;5073777;28;20040;-68
2022/04/22 10:34:39;;;;;;;0.65;0.30;;;21.60;37.20;;;;;;5070927;28;20400;-69
2022/04/22 10:37:14;;;;;;;1.92;0.28;;;21.60;37.20;;;;;;5068191;28;20123;-69
2022/04/22 10:39:40;;;;;;;4.65;1.10;;;21.50;37.10;;;;;;5066104;28;20029;-68
2022/04/22 10:42:15;;;;;;;1.27;0.30;;;21.50;37.90;;;;;;5067147;28;20552;-68
2022/04/22 10:53:26;;;;;;;1.70;0.30;;;21.40;37.20;;;;;;5104500;27;20120;-69
2022/04/22 10:55:54;;;;;;;1.80;0.43;;;21.30;37.40;;;;;;5092993;28;20081;-69
2022/04/22 10:58:21;;;;;;;3.13;0.52;;;21.30;37.50;;;;;;5109700;27;20488;-69
2022/04/22 11:00:49;;;;;;;1.75;0.43;;;21.30;37.50;;;;;;5112756;28;20169;-69
2022/04/22 11:03:19;;;;;;;3.50;0.40;;;21.20;37.50;;;;;;5108554;28;20056;-70
2022/04/22 11:08:28;;;;;;;2.53;0.95;;;21.20;37.50;;;;;;5104974;27;20132;-70
2022/04/22 11:21:53;;;;;;;2.67;0.68;;;21.00;38.40;;;;;;5117665;27;20132;-70
2022/04/22 11:29:51;;;;;;;2.13;0.60;;;21.00;38.80;;;;;;5095963;27;20144;-71
2022/04/22 11:32:22;;;;;;;2.58;0.68;;;21.00;38.80;;;;;;5079795;28;20123;-71
2022/04/22 11:37:30;;;;;;;4.47;0.30;;;21.00;38.80;;;;;;5164955;27;102606;-72
2022/04/22 11:39:56;;;;;;;3.90;0.32;;;20.90;39.10;;;;;;5169612;27;20038;-68
2022/04/22 11:42:22;;;;;;;5.07;0.63;;;21.00;39.20;;;;;;5149570;27;20139;-69
2022/04/22 11:45:11;;;;;;;2.35;0.40;;;21.00;39.20;;;;;;5148484;27;20374;-69
2022/04/22 11:47:37;;;;;;;5.38;0.75;;;21.00;39.20;;;;;;5141640;27;20041;-69
2022/04/22 11:50:04;;;;;;;2.80;0.47;;;21.00;39.20;;;;;;5147351;27;20042;-70
2022/04/22 11:52:29;;;;;;;39.70;16.00;;;21.00;39.20;;;;;;5158656;27;20048;-69
2022/04/22 11:55:04;;;;;;;36.88;15.63;;;21.00;39.40;;;;;;5146224;27;20773;-71
2022/04/22 11:57:36;;;;;;;24.42;12.07;;;21.00;39.50;;;;;;5148581;27;20432;-67
2022/04/22 12:05:42;;;;;;;15.57;6.10;;;21.00;39.90;;;;;;5143622;27;20050;-71
2022/04/22 12:08:10;;;;;;;14.68;4.25;;;21.10;40.00;;;;;;5137664;27;20043;-72
2022/04/22 12:10:39;;;;;;;12.65;4.53;;;21.10;40.00;;;;;;5162477;27;20142;-72
2022/04/22 12:13:06;;;;;;;10.70;3.70;;;21.10;40.30;;;;;;5144704;27;20045;-73
2022/04/22 12:15:39;;;;;;;9.60;4.38;;;21.10;40.30;;;;;;5141630;27;20109;-72
2022/04/22 12:18:07;;;;;;;14.65;3.45;;;21.10;40.20;;;;;;5143966;27;20066;-72
2022/04/22 12:20:33;;;;;;;11.80;4.25;;;21.10;40.00;;;;;;5143618;27;20026;-73
2022/04/22 12:22:59;;;;;;;11.45;4.07;;;21.10;39.80;;;;;;5156813;27;20087;-71
2022/04/22 12:25:25;;;;;;;6.97;3.25;;;21.10;39.90;;;;;;5147047;27;20052;-73
2022/04/22 12:28:13;;;;;;;5.00;2.28;;;21.10;39.90;;;;;;5140677;27;20039;-72
2022/04/22 12:30:42;;;;;;;5.20;1.98;;;21.10;39.90;;;;;;5136923;27;20038;-72
2022/04/22 12:33:18;;;;;;;7.82;1.90;;;21.10;39.90;;;;;;5140648;27;20046;-74
2022/04/22 12:35:45;;;;;;;9.18;2.10;;;21.10;39.60;;;;;;5144012;27;20061;-72
2022/04/22 12:38:13;;;;;;;6.25;2.00;;;21.20;39.50;;;;;;5140997;27;20584;-72
2022/04/22 12:40:47;;;;;;;5.93;1.55;;;21.30;39.40;;;;;;5151110;27;20038;-71
2022/04/22 12:43:31;;;;;;;3.88;1.52;;;21.30;39.30;;;;;;5124504;27;20038;-73
2022/04/22 12:52:09;;;;;;;15.27;3.30;;;21.30;39.00;;;;;;5108859;28;20447;-71
2022/04/22 12:54:36;;;;;;;3.50;1.58;;;21.30;39.10;;;;;;5113416;28;20036;-69
2022/04/22 12:57:01;;;;;;;3.13;1.40;;;21.30;39.20;;;;;;5104837;28;20039;-70
2022/04/22 12:59:44;;;;;;;3.97;1.13;;;21.30;39.20;;;;;;5112486;28;20042;-69
2022/04/22 13:02:13;;;;;;;3.60;1.08;;;21.30;39.20;;;;;;5101522;28;20043;-68
2022/04/22 13:05:03;;;;;;;3.20;1.35;;;21.40;39.30;;;;;;5095982;28;20032;-69
2022/04/22 13:07:50;;;;;;;3.47;1.33;;;21.30;39.50;;;;;;5114179;28;20070;-67
2022/04/22 13:10:18;;;;;;;5.85;1.60;;;21.30;39.40;;;;;;5108783;28;20031;-67
2022/04/22 13:12:45;;;;;;;5.03;1.45;;;21.40;39.40;;;;;;5109714;28;20040;-68
2022/04/22 13:15:13;;;;;;;4.57;1.00;;;21.40;39.30;;;;;;5100504;28;20045;-67
2022/04/22 13:17:40;;;;;;;4.28;1.17;;;21.40;39.30;;;;;;5099886;28;20517;-69
2022/04/22 13:20:08;;;;;;;3.45;0.90;;;21.40;39.40;;;;;;5111003;28;20047;-65
2022/04/22 13:22:35;;;;;;;7.05;1.63;;;21.40;39.40;;;;;;5106426;28;20051;-66
2022/04/22 13:25:01;;;;;;;3.05;0.88;;;21.40;39.50;;;;;;5094051;28;20170;-70
2022/04/22 13:27:26;;;;;;;2.28;0.98;;;21.30;39.60;;;;;;5108308;28;20093;-74
2022/04/22 13:29:52;;;;;;;2.08;0.85;;;21.30;39.70;;;;;;5084574;28;20036;-71
2022/04/22 13:32:18;;;;;;;6.00;1.30;;;21.30;39.80;;;;;;5119199;28;20088;-71
2022/04/22 13:34:43;;;;;;;2.95;2.05;;;21.30;39.90;;;;;;5125967;27;20136;-71
2022/04/22 13:37:09;;;;;;;4.15;1.80;;;21.30;39.90;;;;;;5103033;28;20032;-72
2022/04/22 13:39:35;;;;;;;3.50;1.98;;;21.30;39.40;;;;;;5111694;27;20096;-71
2022/04/22 13:42:01;;;;;;;4.88;1.85;;;21.20;39.10;;;;;;5115569;27;20044;-70
2022/04/22 13:52:43;;;;;;;3.13;1.38;;;21.20;39.20;;;;;;5107441;28;20043;-68
2022/04/22 13:55:10;;;;;;;3.05;1.60;;;21.20;39.30;;;;;;5112873;28;20090;-72
2022/04/22 13:57:35;;;;;;;2.95;1.08;;;21.20;39.40;;;;;;5098263;28;20039;-72
2022/04/22 14:00:04;;;;;;;4.43;1.98;;;21.20;39.60;;;;;;5094346;28;20448;-73
2022/04/22 14:02:30;;;;;;;4.45;1.60;;;21.20;39.50;;;;;;5090502;28;20052;-72
2022/04/22 14:04:56;;;;;;;3.70;1.70;;;21.20;39.40;;;;;;5092206;28;20032;-72
2022/04/22 14:07:22;;;;;;;4.72;1.65;;;21.20;39.40;;;;;;5106765;28;20403;-70
2022/04/22 14:09:48;;;;;;;4.28;1.80;;;21.20;39.30;;;;;;5100569;28;20036;-70
2022/04/22 14:12:14;;;;;;;4.45;1.98;;;21.10;39.20;;;;;;5109269;27;20484;-70
2022/04/22 14:14:39;;;;;;;3.45;1.52;;;21.10;39.20;;;;;;5106483;28;20046;-70
2022/04/22 14:17:06;;;;;;;3.35;1.45;;;21.10;39.20;;;;;;5095226;28;20054;-69
2022/04/22 14:19:32;;;;;;;3.30;1.92;;;21.10;39.40;;;;;;5095178;28;20115;-70
2022/04/22 14:21:58;;;;;;;3.58;1.90;;;21.10;39.40;;;;;;5088449;28;20456;-69
2022/04/22 14:24:27;;;;;;;2.70;1.67;;;21.10;39.50;;;;;;5096250;28;20035;-70
2022/04/22 14:26:54;;;;;;;3.53;1.42;;;21.10;39.40;;;;;;5103852;28;20039;-71
2022/04/22 14:29:21;;;;;;;3.53;1.40;;;21.10;39.40;;;;;;5097384;28;20475;-72
2022/04/22 14:31:50;;;;;;;2.80;1.10;;;21.20;39.40;;;;;;5103452;28;20666;-71
2022/04/22 14:34:16;;;;;;;3.78;1.60;;;21.20;39.30;;;;;;5080418;28;20036;-66